Time;durP1;ratioP1;P1;durP2;ratioP2;P2;SDS_P1;SDS_P2;PMS_P1;PMS_P2;Temp;Humidity;BMP_temperature;BMP_pressure;BME280_temperature;BME280_humidity;BME280_pressure;Samples;Min_cycle;Max_cycle;Signal;HPM_P1;HPM_P2
2021/11/24 00:00:52;;;;;;;15.07;8.13;;;;;;;;;;6057807;29;20051;-67
2021/11/24 00:03:56;;;;;;;14.50;8.43;;;;;;;;;;6081996;29;20127;-65
2021/11/24 00:06:57;;;;;;;12.75;7.70;;;;;;;;;;6070765;29;20067;-66
2021/11/24 00:09:59;;;;;;;13.52;7.82;;;;;;;;;;6078131;29;20052;-66
2021/11/24 00:13:02;;;;;;;11.80;7.25;;;;;;;;;;6067956;29;20155;-65
2021/11/24 00:16:03;;;;;;;16.05;8.10;;;;;;;;;;6060900;29;20067;-65
2021/11/24 00:19:05;;;;;;;14.38;8.32;;;;;;;;;;6093212;29;20440;-65
2021/11/24 00:22:06;;;;;;;13.73;7.50;;;;;;;;;;6079173;29;20050;-65
2021/11/24 00:25:08;;;;;;;14.98;8.38;;;;;;;;;;6079094;29;20196;-66
2021/11/24 00:28:11;;;;;;;13.48;8.30;;;;;;;;;;6076122;29;20161;-66
2021/11/24 00:31:12;;;;;;;16.20;7.93;;;;;;;;;;6069695;29;20106;-66
2021/11/24 00:34:14;;;;;;;13.18;7.93;;;;;;;;;;6083540;29;20131;-65
2021/11/24 00:37:15;;;;;;;14.77;8.48;;;;;;;;;;6081820;29;20048;-66
2021/11/24 00:40:16;;;;;;;14.45;8.95;;;;;;;;;;6076582;29;20507;-66
2021/11/24 00:43:21;;;;;;;15.80;8.93;;;;;;;;;;6084352;29;20048;-64
2021/11/24 00:46:22;;;;;;;16.92;8.07;;;;;;;;;;6070254;29;20104;-66
2021/11/24 00:49:24;;;;;;;13.63;8.63;;;;;;;;;;6085824;29;20504;-66
2021/11/24 00:52:26;;;;;;;13.25;8.13;;;;;;;;;;6082005;29;20056;-67
2021/11/24 00:55:28;;;;;;;11.10;7.78;;;;;;;;;;6097160;29;20043;-64
2021/11/24 00:58:30;;;;;;;17.38;10.32;;;;;;;;;;6100138;29;20052;-65
2021/11/24 01:01:32;;;;;;;14.32;9.60;;;;;;;;;;6081350;29;20051;-64
2021/11/24 01:04:34;;;;;;;18.27;10.48;;;;;;;;;;6083308;29;20041;-66
2021/11/24 01:07:35;;;;;;;17.42;9.80;;;;;;;;;;6073377;29;20135;-66
2021/11/24 01:10:36;;;;;;;14.30;9.73;;;;;;;;;;6075375;29;20087;-65
2021/11/24 01:13:39;;;;;;;15.82;8.75;;;;;;;;;;6087214;29;20460;-65
2021/11/24 01:16:42;;;;;;;16.85;9.52;;;;;;;;;;6068702;29;20051;-65
2021/11/24 01:19:44;;;;;;;16.42;9.88;;;;;;;;;;6093029;29;20059;-64
2021/11/24 01:22:45;;;;;;;15.15;9.65;;;;;;;;;;6070928;29;20192;-65
2021/11/24 01:25:47;;;;;;;14.90;9.68;;;;;;;;;;6069487;29;20448;-64
2021/11/24 01:28:50;;;;;;;16.85;9.02;;;;;;;;;;6089004;29;20053;-66
2021/11/24 01:31:51;;;;;;;15.57;9.27;;;;;;;;;;6073163;29;20040;-66
2021/11/24 01:34:53;;;;;;;13.50;8.95;;;;;;;;;;6077678;29;20111;-64
2021/11/24 01:37:54;;;;;;;16.00;8.63;;;;;;;;;;6074091;29;20052;-66
2021/11/24 01:40:55;;;;;;;16.58;9.45;;;;;;;;;;6077179;29;20107;-66
2021/11/24 01:43:58;;;;;;;15.15;9.10;;;;;;;;;;6090019;29;20056;-66
2021/11/24 01:47:01;;;;;;;17.48;9.13;;;;;;;;;;6068276;29;20658;-66
2021/11/24 01:50:02;;;;;;;14.48;8.43;;;;;;;;;;6058014;29;20052;-64
2021/11/24 01:53:04;;;;;;;14.75;8.70;;;;;;;;;;6078583;29;20131;-64
2021/11/24 01:56:05;;;;;;;13.57;8.40;;;;;;;;;;6080301;29;20059;-64
2021/11/24 01:59:09;;;;;;;15.52;8.82;;;;;;;;;;6093708;29;20049;-66
2021/11/24 02:02:11;;;;;;;17.40;9.23;;;;;;;;;;6074622;29;20051;-66
2021/11/24 02:05:12;;;;;;;14.02;9.35;;;;;;;;;;6081884;29;20040;-66
2021/11/24 02:08:14;;;;;;;15.70;9.35;;;;;;;;;;6080018;29;20719;-65
2021/11/24 02:11:15;;;;;;;15.63;8.77;;;;;;;;;;6072588;29;20040;-64
2021/11/24 02:14:18;;;;;;;15.52;9.52;;;;;;;;;;6085887;29;20143;-64
2021/11/24 02:17:19;;;;;;;15.32;9.10;;;;;;;;;;6066416;29;20044;-66
2021/11/24 02:23:59;;;;;;;15.32;9.20;;;;;;;;;;6277782;27;20686;-66
2021/11/24 02:27:01;;;;;;;16.17;9.88;;;;;;;;;;6247702;28;20076;-66
2021/11/24 02:30:03;;;;;;;15.18;9.27;;;;;;;;;;6261980;28;20527;-66
2021/11/24 02:33:05;;;;;;;14.40;9.63;;;;;;;;;;6239511;28;20394;-66
2021/11/24 02:36:08;;;;;;;16.08;9.35;;;;;;;;;;6239485;28;20138;-66
2021/11/24 02:39:10;;;;;;;19.33;10.15;;;;;;;;;;6252607;28;20433;-66
2021/11/24 02:42:12;;;;;;;20.95;10.70;;;;;;;;;;6245750;28;20094;-66
2021/11/24 02:45:13;;;;;;;19.23;10.13;;;;;;;;;;6255715;28;20228;-66
2021/11/24 02:48:20;;;;;;;17.60;10.80;;;;;;;;;;6229271;28;20180;-66
2021/11/24 02:51:22;;;;;;;17.83;10.35;;;;;;;;;;6228932;28;20503;-66
2021/11/24 02:54:24;;;;;;;17.27;10.68;;;;;;;;;;6237408;28;20164;-66
2021/11/24 02:57:30;;;;;;;19.38;11.43;;;;;;;;;;6223664;28;20045;-66
2021/11/24 03:00:33;;;;;;;15.63;10.35;;;;;;;;;;6227224;28;20089;-66
2021/11/24 03:03:34;;;;;;;17.23;10.88;;;;;;;;;;6229715;28;20113;-66
2021/11/24 03:06:36;;;;;;;17.33;11.07;;;;;;;;;;6225665;28;20084;-66
2021/11/24 03:09:38;;;;;;;19.00;10.65;;;;;;;;;;6233683;28;20137;-66
2021/11/24 03:12:40;;;;;;;21.13;11.70;;;;;;;;;;6221756;28;20045;-66
2021/11/24 03:15:41;;;;;;;18.63;11.05;;;;;;;;;;6216701;28;20976;-66
2021/11/24 03:18:43;;;;;;;18.92;11.68;;;;;;;;;;6229212;28;20046;-66
2021/11/24 03:21:44;;;;;;;19.27;11.30;;;;;;;;;;6226359;28;20053;-66
2021/11/24 03:24:49;;;;;;;16.23;11.02;;;;;;;;;;6246795;28;20155;-66
2021/11/24 03:27:50;;;;;;;17.23;11.00;;;;;;;;;;6227153;28;20046;-66
2021/11/24 03:30:52;;;;;;;17.45;11.55;;;;;;;;;;6226263;28;20042;-66
2021/11/24 03:33:53;;;;;;;20.98;11.73;;;;;;;;;;6225788;28;20136;-66
2021/11/24 03:36:54;;;;;;;16.67;11.00;;;;;;;;;;6208697;28;20124;-67
2021/11/24 03:39:57;;;;;;;17.30;11.07;;;;;;;;;;6214804;28;20050;-66
2021/11/24 03:42:59;;;;;;;18.92;11.38;;;;;;;;;;6209845;28;20072;-66
2021/11/24 03:46:01;;;;;;;17.77;11.18;;;;;;;;;;6207864;28;20079;-66
2021/11/24 03:49:03;;;;;;;18.00;11.75;;;;;;;;;;6217567;28;20137;-66
2021/11/24 03:52:05;;;;;;;22.15;12.93;;;;;;;;;;6206347;28;20143;-66
2021/11/24 03:55:08;;;;;;;16.83;11.23;;;;;;;;;;6215822;28;20049;-66
2021/11/24 03:58:10;;;;;;;17.98;11.48;;;;;;;;;;6215541;28;20119;-66
2021/11/24 04:01:12;;;;;;;21.70;11.82;;;;;;;;;;6202457;28;20050;-66
2021/11/24 04:04:14;;;;;;;18.13;11.68;;;;;;;;;;6206715;28;20146;-66
2021/11/24 04:07:15;;;;;;;17.25;11.30;;;;;;;;;;6209531;28;20121;-66
2021/11/24 04:10:18;;;;;;;21.27;12.02;;;;;;;;;;6200861;28;20132;-66
2021/11/24 04:13:19;;;;;;;18.25;11.65;;;;;;;;;;6215227;28;20116;-66
2021/11/24 04:16:21;;;;;;;20.15;11.63;;;;;;;;;;6200128;28;20325;-66
2021/11/24 04:19:22;;;;;;;24.45;12.75;;;;;;;;;;6202864;28;20038;-66
2021/11/24 04:22:24;;;;;;;18.33;11.95;;;;;;;;;;6206094;28;20073;-66
2021/11/24 04:25:26;;;;;;;19.08;12.90;;;;;;;;;;6207699;28;21022;-66
2021/11/24 04:28:28;;;;;;;20.90;12.50;;;;;;;;;;6216905;28;20133;-66
2021/11/24 04:31:29;;;;;;;21.88;13.75;;;;;;;;;;6199817;28;20088;-66
2021/11/24 04:34:31;;;;;;;20.13;13.77;;;;;;;;;;6214421;28;20053;-66
2021/11/24 04:37:32;;;;;;;22.70;14.50;;;;;;;;;;6187098;28;20061;-66
2021/11/24 04:40:35;;;;;;;23.67;14.02;;;;;;;;;;6209092;28;20048;-66
2021/11/24 04:43:39;;;;;;;22.25;13.68;;;;;;;;;;6214963;28;20053;-66
2021/11/24 04:46:41;;;;;;;23.63;14.18;;;;;;;;;;6200493;28;20205;-66
2021/11/24 04:49:42;;;;;;;26.90;14.50;;;;;;;;;;6212476;28;20172;-66
2021/11/24 04:52:44;;;;;;;22.45;14.90;;;;;;;;;;6196494;28;20050;-66
2021/11/24 04:55:46;;;;;;;26.88;15.35;;;;;;;;;;6210368;28;20489;-66
2021/11/24 04:58:52;;;;;;;21.02;14.20;;;;;;;;;;6217483;28;20219;-66
2021/11/24 05:01:53;;;;;;;23.92;14.05;;;;;;;;;;6195019;28;20062;-66
2021/11/24 05:04:55;;;;;;;23.27;13.90;;;;;;;;;;6213711;28;20176;-66
2021/11/24 05:07:56;;;;;;;22.45;14.68;;;;;;;;;;6200388;28;20184;-66
2021/11/24 05:10:59;;;;;;;21.38;14.52;;;;;;;;;;6205924;28;20061;-66
2021/11/24 05:14:02;;;;;;;21.45;13.38;;;;;;;;;;6219942;28;20058;-66
2021/11/24 05:17:06;;;;;;;22.63;14.75;;;;;;;;;;6215522;28;20371;-66
2021/11/24 05:20:08;;;;;;;25.33;14.18;;;;;;;;;;6213042;28;20516;-66
2021/11/24 05:23:13;;;;;;;25.55;14.50;;;;;;;;;;6206574;28;20129;-66
2021/11/24 05:26:16;;;;;;;20.80;13.85;;;;;;;;;;6206154;28;20053;-66
2021/11/24 05:29:18;;;;;;;20.45;14.18;;;;;;;;;;6215862;28;20175;-66
2021/11/24 05:32:19;;;;;;;25.63;14.55;;;;;;;;;;6190662;28;20054;-66
2021/11/24 05:35:21;;;;;;;22.23;14.10;;;;;;;;;;6206758;28;20469;-66
2021/11/24 05:38:23;;;;;;;24.25;13.88;;;;;;;;;;6211541;28;20050;-66
2021/11/24 05:41:26;;;;;;;20.88;13.70;;;;;;;;;;6208137;28;20038;-66
2021/11/24 05:44:27;;;;;;;26.23;14.38;;;;;;;;;;6215469;28;20049;-66
2021/11/24 05:50:53;;;;;;;23.58;16.08;;;;;;;;;;6185114;28;20058;-66
2021/11/24 05:53:55;;;;;;;24.80;14.70;;;;;;;;;;6223683;28;20058;-66
2021/11/24 05:56:57;;;;;;;27.00;15.13;;;;;;;;;;6225041;28;20167;-65
2021/11/24 05:59:59;;;;;;;26.65;15.23;;;;;;;;;;6238306;28;20603;-64
2021/11/24 06:03:00;;;;;;;22.70;14.95;;;;;;;;;;6207369;28;20220;-64
2021/11/24 06:06:02;;;;;;;22.73;15.25;;;;;;;;;;6223705;28;20045;-65
2021/11/24 06:09:04;;;;;;;22.42;15.15;;;;;;;;;;6228519;28;20128;-66
2021/11/24 06:12:07;;;;;;;23.52;15.73;;;;;;;;;;6222920;28;20054;-67
2021/11/24 06:15:14;;;;;;;26.23;15.13;;;;;;;;;;6231305;28;20136;-67
2021/11/24 06:18:15;;;;;;;25.73;15.48;;;;;;;;;;6225012;28;20045;-66
2021/11/24 06:21:18;;;;;;;24.75;15.85;;;;;;;;;;6219913;28;20140;-66
2021/11/24 06:24:19;;;;;;;24.08;15.25;;;;;;;;;;6237733;28;20501;-65
2021/11/24 06:27:22;;;;;;;24.65;15.88;;;;;;;;;;6227551;28;20100;-66
2021/11/24 06:30:24;;;;;;;24.77;16.05;;;;;;;;;;6221852;28;20046;-66
2021/11/24 06:33:26;;;;;;;28.10;16.10;;;;;;;;;;6231467;28;20053;-66
2021/11/24 06:36:27;;;;;;;24.75;15.35;;;;;;;;;;6218880;28;20038;-66
2021/11/24 06:39:28;;;;;;;22.75;15.32;;;;;;;;;;6233011;28;20141;-66
2021/11/24 06:42:31;;;;;;;23.70;15.95;;;;;;;;;;6219763;28;20041;-66
2021/11/24 06:45:33;;;;;;;26.77;15.63;;;;;;;;;;6225567;28;20046;-66
2021/11/24 06:48:34;;;;;;;20.38;14.65;;;;;;;;;;6238598;28;21190;-66
2021/11/24 06:51:36;;;;;;;23.17;15.25;;;;;;;;;;6233257;28;20527;-65
2021/11/24 06:54:37;;;;;;;24.92;15.80;;;;;;;;;;6238119;28;20051;-66
2021/11/24 06:57:40;;;;;;;25.25;15.35;;;;;;;;;;6224177;28;20419;-66
2021/11/24 07:00:42;;;;;;;23.38;14.25;;;;;;;;;;6230461;28;20077;-66
2021/11/24 07:03:43;;;;;;;26.23;15.30;;;;;;;;;;6239434;28;20124;-66
2021/11/24 07:06:45;;;;;;;25.50;14.43;;;;;;;;;;6224752;28;20207;-66
2021/11/24 07:09:46;;;;;;;22.45;14.05;;;;;;;;;;6241525;28;20146;-66
2021/11/24 07:12:49;;;;;;;24.58;14.50;;;;;;;;;;6231105;28;20091;-66
2021/11/24 07:15:50;;;;;;;21.45;15.30;;;;;;;;;;6223750;28;20374;-66
2021/11/24 07:18:52;;;;;;;22.98;15.18;;;;;;;;;;6236873;28;20099;-66
2021/11/24 07:21:53;;;;;;;24.80;14.80;;;;;;;;;;6225780;28;20139;-66
2021/11/24 07:24:55;;;;;;;19.40;13.48;;;;;;;;;;6239447;28;20049;-66
2021/11/24 07:27:58;;;;;;;19.42;13.20;;;;;;;;;;6227718;28;20145;-66
2021/11/24 07:30:59;;;;;;;22.08;12.73;;;;;;;;;;6222256;28;20170;-66
2021/11/24 07:34:01;;;;;;;23.13;12.77;;;;;;;;;;6239905;28;20397;-66
2021/11/24 07:37:02;;;;;;;25.45;13.05;;;;;;;;;;6229259;28;20114;-66
2021/11/24 07:40:04;;;;;;;17.58;12.35;;;;;;;;;;6238571;28;20533;-66
2021/11/24 07:43:07;;;;;;;22.35;13.50;;;;;;;;;;6236310;28;20178;-66
2021/11/24 07:46:08;;;;;;;19.48;12.18;;;;;;;;;;6219651;28;20597;-66
2021/11/24 07:49:10;;;;;;;19.05;11.88;;;;;;;;;;6234479;28;20532;-66
2021/11/24 07:52:11;;;;;;;16.52;11.45;;;;;;;;;;6231897;28;20168;-66
2021/11/24 07:55:13;;;;;;;22.08;12.18;;;;;;;;;;6238464;28;20046;-67
2021/11/24 07:58:18;;;;;;;16.85;11.75;;;;;;;;;;6239294;28;20076;-66
2021/11/24 08:01:19;;;;;;;19.52;11.98;;;;;;;;;;6222080;28;20049;-66
2021/11/24 08:04:21;;;;;;;20.00;12.93;;;;;;;;;;6241367;28;20103;-66
2021/11/24 08:07:22;;;;;;;15.85;11.52;;;;;;;;;;6235680;28;20577;-67
2021/11/24 08:10:24;;;;;;;17.25;10.88;;;;;;;;;;6229126;28;20898;-66
2021/11/24 08:13:27;;;;;;;15.63;10.57;;;;;;;;;;6245444;28;20049;-66
2021/11/24 08:16:28;;;;;;;18.60;10.88;;;;;;;;;;6230165;28;20084;-66
2021/11/24 08:19:30;;;;;;;21.73;11.82;;;;;;;;;;6248118;28;20049;-66
2021/11/24 08:22:31;;;;;;;15.50;10.90;;;;;;;;;;6229478;28;20169;-67
2021/11/24 08:25:32;;;;;;;18.20;11.00;;;;;;;;;;6240542;28;20128;-67
2021/11/24 08:28:35;;;;;;;18.38;10.68;;;;;;;;;;6245257;28;20045;-66
2021/11/24 08:31:39;;;;;;;15.02;10.93;;;;;;;;;;6231666;28;20781;-67
2021/11/24 08:34:41;;;;;;;17.83;11.85;;;;;;;;;;6242198;28;20668;-66
2021/11/24 08:37:42;;;;;;;17.17;11.10;;;;;;;;;;6234404;28;20796;-66
2021/11/24 08:40:44;;;;;;;16.20;10.45;;;;;;;;;;6217980;28;20061;-67
2021/11/24 08:43:46;;;;;;;17.60;10.95;;;;;;;;;;6234361;28;20099;-67
2021/11/24 08:46:48;;;;;;;20.70;10.93;;;;;;;;;;6223501;28;20080;-67
2021/11/24 08:49:49;;;;;;;17.55;11.02;;;;;;;;;;6236202;28;20068;-66
2021/11/24 08:52:50;;;;;;;16.77;10.45;;;;;;;;;;6228560;28;20497;-66
2021/11/24 08:55:52;;;;;;;19.58;10.02;;;;;;;;;;6229533;28;20041;-67
2021/11/24 08:58:55;;;;;;;16.05;10.70;;;;;;;;;;6240795;28;20136;-67
2021/11/24 09:01:56;;;;;;;14.82;10.10;;;;;;;;;;6223433;28;20037;-67
2021/11/24 09:04:58;;;;;;;13.48;9.20;;;;;;;;;;6223731;28;20042;-67
2021/11/24 09:07:59;;;;;;;17.17;10.02;;;;;;;;;;6229601;28;20180;-67
2021/11/24 09:11:01;;;;;;;16.40;10.43;;;;;;;;;;6232205;28;20132;-67
2021/11/24 09:14:03;;;;;;;16.98;10.68;;;;;;;;;;6238184;28;20190;-67
2021/11/24 09:17:05;;;;;;;14.98;9.88;;;;;;;;;;6220649;28;20040;-67
2021/11/24 09:20:07;;;;;;;19.83;9.50;;;;;;;;;;6236580;28;20132;-67
2021/11/24 09:23:09;;;;;;;12.63;8.57;;;;;;;;;;6222475;28;20147;-67
2021/11/24 09:26:17;;;;;;;11.73;8.25;;;;;;;;;;6230802;28;20050;-67
2021/11/24 09:29:20;;;;;;;14.20;8.98;;;;;;;;;;6243364;28;21014;-67
2021/11/24 09:32:21;;;;;;;13.43;8.55;;;;;;;;;;6228597;28;20055;-67
2021/11/24 09:35:23;;;;;;;12.52;8.25;;;;;;;;;;6235997;28;20120;-67
2021/11/24 09:38:24;;;;;;;13.32;9.40;;;;;;;;;;6231844;28;20073;-67
2021/11/24 09:41:26;;;;;;;13.85;9.18;;;;;;;;;;6223500;28;20041;-66
2021/11/24 09:44:29;;;;;;;13.23;8.40;;;;;;;;;;6245009;28;20046;-67
2021/11/24 09:47:32;;;;;;;12.63;7.25;;;;;;;;;;6221935;28;20049;-67
2021/11/24 09:50:34;;;;;;;9.73;6.85;;;;;;;;;;6227527;28;20072;-67
2021/11/24 09:53:36;;;;;;;9.85;6.28;;;;;;;;;;6244905;28;20075;-67
2021/11/24 09:56:40;;;;;;;11.73;7.78;;;;;;;;;;6238865;28;20049;-67
2021/11/24 09:59:41;;;;;;;;;;;;;;;;;;6250652;28;20048;-66
2021/11/24 10:02:44;;;;;;;10.32;6.78;;;;;;;;;;6222073;28;19921;-67
2021/11/24 10:05:46;;;;;;;9.93;6.20;;;;;;;;;;6225316;28;20195;-67
2021/11/24 10:08:48;;;;;;;11.70;7.30;;;;;;;;;;6244112;28;20050;-67
2021/11/24 10:11:49;;;;;;;10.27;6.95;;;;;;;;;;6236051;28;20124;-67
2021/11/24 10:14:50;;;;;;;11.50;7.18;;;;;;;;;;6240168;28;20611;-67
2021/11/24 10:18:10;;;;;;;15.27;9.00;;;;;;;;;;6225845;28;20053;-67
2021/11/24 10:21:14;;;;;;;13.63;8.10;;;;;;;;;;6220423;28;20131;-67
2021/11/24 10:24:16;;;;;;;10.65;7.22;;;;;;;;;;6241129;28;20136;-67
2021/11/24 10:27:32;;;;;;;8.38;5.60;;;;;;;;;;6230467;28;20180;-67
2021/11/24 10:30:34;;;;;;;10.60;7.38;;;;;;;;;;6217402;28;20312;-67
2021/11/24 10:33:37;;;;;;;8.82;6.32;;;;;;;;;;6230576;28;20658;-67
2021/11/24 10:36:48;;;;;;;9.13;7.15;;;;;;;;;;6221218;28;20179;-67
2021/11/24 10:39:51;;;;;;;11.77;7.07;;;;;;;;;;6235425;28;20058;-67
2021/11/24 10:42:54;;;;;;;10.52;7.15;;;;;;;;;;6223665;28;20041;-67
2021/11/24 10:45:56;;;;;;;10.10;6.72;;;;;;;;;;6225148;28;20042;-67
2021/11/24 10:49:04;;;;;;;10.77;6.78;;;;;;;;;;6225431;28;20096;-67
2021/11/24 10:52:11;;;;;;;9.95;7.32;;;;;;;;;;6222839;28;20079;-67
2021/11/24 10:55:14;;;;;;;9.88;6.68;;;;;;;;;;6251167;28;20046;-68
2021/11/24 10:58:18;;;;;;;13.82;7.28;;;;;;;;;;6253353;28;20051;-67
2021/11/24 11:01:24;;;;;;;11.95;7.03;;;;;;;;;;6217100;28;20168;-67
2021/11/24 11:04:26;;;;;;;10.63;7.20;;;;;;;;;;6239313;28;20045;-67
2021/11/24 11:07:29;;;;;;;8.27;7.07;;;;;;;;;;6239455;28;20505;-67
2021/11/24 11:10:31;;;;;;;10.45;7.85;;;;;;;;;;6242910;28;20152;-66
2021/11/24 11:13:33;;;;;;;13.55;8.20;;;;;;;;;;6251486;28;20130;-67
2021/11/24 11:16:41;;;;;;;11.68;8.60;;;;;;;;;;6230340;28;20068;-67
2021/11/24 11:19:48;;;;;;;13.18;10.15;;;;;;;;;;6244918;28;20128;-67
2021/11/24 11:22:54;;;;;;;9.77;7.97;;;;;;;;;;6221504;28;20056;-68
2021/11/24 11:25:59;;;;;;;10.68;8.18;;;;;;;;;;6234686;28;20045;-67
2021/11/24 11:29:00;;;;;;;11.02;8.50;;;;;;;;;;6261739;28;20053;-67
2021/11/24 11:32:02;;;;;;;11.05;7.82;;;;;;;;;;6231264;28;20061;-68
2021/11/24 11:35:05;;;;;;;10.02;8.30;;;;;;;;;;6244903;28;20076;-67
2021/11/24 11:38:07;;;;;;;10.30;8.15;;;;;;;;;;6250341;28;20123;-68
2021/11/24 11:41:09;;;;;;;9.32;8.43;;;;;;;;;;6236225;28;20095;-67
2021/11/24 11:44:13;;;;;;;12.43;8.90;;;;;;;;;;6248653;28;20211;-68
2021/11/24 11:47:14;;;;;;;11.05;8.60;;;;;;;;;;6225738;28;20138;-68
2021/11/24 11:50:37;;;;;;;12.18;8.95;;;;;;;;;;6239271;28;20180;-68
2021/11/24 11:53:39;;;;;;;12.40;8.85;;;;;;;;;;6238677;28;20124;-66
2021/11/24 11:56:43;;;;;;;9.90;8.43;;;;;;;;;;6223863;28;20533;-67
2021/11/24 11:59:45;;;;;;;9.40;8.20;;;;;;;;;;6234063;28;20050;-67
2021/11/24 12:02:50;;;;;;;10.35;8.20;;;;;;;;;;6208461;28;20430;-68
2021/11/24 12:06:06;;;;;;;9.48;8.48;;;;;;;;;;6221248;28;20563;-67
2021/11/24 12:09:20;;;;;;;10.85;8.20;;;;;;;;;;6230274;28;20045;-67
2021/11/24 12:12:26;;;;;;;9.43;8.00;;;;;;;;;;6217225;28;20135;-67
2021/11/24 12:15:28;;;;;;;11.25;8.98;;;;;;;;;;6231293;28;20508;-68
2021/11/24 12:18:30;;;;;;;11.75;8.75;;;;;;;;;;6239050;28;20050;-68
2021/11/24 12:21:31;;;;;;;11.57;8.82;;;;;;;;;;6227708;28;20056;-67
2021/11/24 12:24:40;;;;;;;13.48;9.20;;;;;;;;;;6242391;28;20552;-67
2021/11/24 12:28:01;;;;;;;13.57;8.98;;;;;;;;;;6233021;28;20465;-67
2021/11/24 12:31:11;;;;;;;13.25;9.45;;;;;;;;;;6224691;28;20045;-68
2021/11/24 12:34:12;;;;;;;12.40;8.73;;;;;;;;;;6235794;28;20587;-67
2021/11/24 12:37:18;;;;;;;10.85;8.93;;;;;;;;;;6228859;28;20061;-67
2021/11/24 12:40:27;;;;;;;12.20;8.68;;;;;;;;;;6237647;28;20525;-68
2021/11/24 12:43:29;;;;;;;10.18;8.57;;;;;;;;;;6232208;28;20412;-67
2021/11/24 12:46:31;;;;;;;10.43;8.57;;;;;;;;;;6219091;28;20107;-66
2021/11/24 12:49:33;;;;;;;11.60;8.48;;;;;;;;;;6229822;28;20081;-66
2021/11/24 12:52:34;;;;;;;9.35;7.82;;;;;;;;;;6218176;28;20056;-66
2021/11/24 12:55:37;;;;;;;10.27;8.23;;;;;;;;;;6226424;28;20160;-67
2021/11/24 12:58:39;;;;;;;13.13;8.25;;;;;;;;;;6241082;28;20046;-67
2021/11/24 13:01:41;;;;;;;10.02;8.00;;;;;;;;;;6218990;28;20046;-66
2021/11/24 13:04:44;;;;;;;10.65;7.90;;;;;;;;;;6237822;28;20792;-66
2021/11/24 13:07:50;;;;;;;11.48;7.85;;;;;;;;;;6232127;28;20056;-66
2021/11/24 13:11:01;;;;;;;9.00;7.63;;;;;;;;;;6237533;28;20042;-67
2021/11/24 13:14:03;;;;;;;11.32;8.40;;;;;;;;;;6240313;28;20049;-66
2021/11/24 13:17:06;;;;;;;10.07;8.82;;;;;;;;;;6224597;28;20049;-66
2021/11/24 13:20:09;;;;;;;10.20;7.82;;;;;;;;;;6244311;28;20172;-67
2021/11/24 13:23:10;;;;;;;9.68;7.45;;;;;;;;;;6228753;28;20053;-66
2021/11/24 13:26:13;;;;;;;9.20;8.00;;;;;;;;;;6220352;28;20438;-67
2021/11/24 13:29:17;;;;;;;10.25;7.80;;;;;;;;;;6238845;28;20542;-66
2021/11/24 13:32:18;;;;;;;8.75;7.68;;;;;;;;;;6222742;28;20535;-66
2021/11/24 13:35:20;;;;;;;9.13;7.57;;;;;;;;;;6231385;28;20045;-67
2021/11/24 13:38:22;;;;;;;8.13;7.32;;;;;;;;;;6240380;28;20091;-66
2021/11/24 13:41:26;;;;;;;10.65;8.60;;;;;;;;;;6234746;28;20054;-67
2021/11/24 13:44:27;;;;;;;10.30;7.80;;;;;;;;;;6252144;28;20057;-66
2021/11/24 13:47:32;;;;;;;10.48;7.65;;;;;;;;;;6224992;28;20052;-67
2021/11/24 13:50:33;;;;;;;10.88;7.53;;;;;;;;;;6229916;28;20078;-67
2021/11/24 13:53:37;;;;;;;10.90;8.75;;;;;;;;;;6250756;28;20381;-66
2021/11/24 13:56:45;;;;;;;11.93;8.80;;;;;;;;;;6230176;28;20053;-66
2021/11/24 13:59:47;;;;;;;11.75;8.13;;;;;;;;;;6248170;28;20076;-66
2021/11/24 14:02:48;;;;;;;9.98;8.10;;;;;;;;;;6216788;28;20077;-66
2021/11/24 14:05:50;;;;;;;10.30;7.63;;;;;;;;;;6225658;28;20072;-66
2021/11/24 14:08:51;;;;;;;9.88;8.27;;;;;;;;;;6237504;28;20073;-66
2021/11/24 14:12:13;;;;;;;9.52;7.53;;;;;;;;;;6230835;28;20092;-66
2021/11/24 14:15:18;;;;;;;11.20;8.15;;;;;;;;;;6220891;28;20073;-67
2021/11/24 14:18:19;;;;;;;10.05;8.20;;;;;;;;;;6233349;28;20411;-66
2021/11/24 14:21:21;;;;;;;9.48;8.02;;;;;;;;;;6227166;28;20141;-66
2021/11/24 14:24:23;;;;;;;10.23;7.55;;;;;;;;;;6240287;28;20053;-66
2021/11/24 14:27:24;;;;;;;15.23;8.25;;;;;;;;;;6235649;28;20502;-66
2021/11/24 14:30:28;;;;;;;9.32;7.50;;;;;;;;;;6231186;28;20822;-67
2021/11/24 14:33:31;;;;;;;11.70;7.47;;;;;;;;;;6224708;28;20059;-66
2021/11/24 14:36:32;;;;;;;10.65;7.32;;;;;;;;;;6227622;28;20489;-66
2021/11/24 14:39:33;;;;;;;10.73;7.80;;;;;;;;;;6238286;28;20373;-66
2021/11/24 14:42:35;;;;;;;10.10;7.57;;;;;;;;;;6227333;28;20037;-66
2021/11/24 14:45:38;;;;;;;11.27;7.70;;;;;;;;;;6229226;28;20087;-66
2021/11/24 14:48:40;;;;;;;12.50;7.88;;;;;;;;;;6229146;28;20056;-66
2021/11/24 14:51:42;;;;;;;12.85;7.93;;;;;;;;;;6224259;28;20168;-66
2021/11/24 14:54:44;;;;;;;14.02;8.38;;;;;;;;;;6231669;28;20188;-65
2021/11/24 14:57:47;;;;;;;10.70;8.38;;;;;;;;;;6225688;28;20416;-65
2021/11/24 15:00:51;;;;;;;10.35;7.80;;;;;;;;;;6221597;28;22536;-65
2021/11/24 15:03:52;;;;;;;10.63;8.02;;;;;;;;;;6234038;28;20061;-65
2021/11/24 15:06:53;;;;;;;12.95;7.93;;;;;;;;;;6225951;28;20090;-65
2021/11/24 15:09:55;;;;;;;12.57;8.35;;;;;;;;;;6232015;28;20046;-65
2021/11/24 15:12:57;;;;;;;13.15;8.52;;;;;;;;;;6224518;28;20184;-65
2021/11/24 15:16:02;;;;;;;13.27;7.53;;;;;;;;;;6223025;28;20046;-65
2021/11/24 15:19:03;;;;;;;11.43;8.23;;;;;;;;;;6231914;28;20049;-66
2021/11/24 15:22:05;;;;;;;14.73;8.85;;;;;;;;;;6218853;28;20069;-65
2021/11/24 15:25:07;;;;;;;13.20;7.88;;;;;;;;;;6225199;28;20439;-67
2021/11/24 15:28:11;;;;;;;13.63;8.75;;;;;;;;;;6223349;28;20049;-66
2021/11/24 15:31:14;;;;;;;16.23;8.80;;;;;;;;;;6220485;28;20049;-66
2021/11/24 15:34:15;;;;;;;13.38;8.90;;;;;;;;;;6234936;28;20132;-66
2021/11/24 15:37:16;;;;;;;10.73;8.65;;;;;;;;;;6222630;28;20470;-65
2021/11/24 15:40:18;;;;;;;12.60;8.50;;;;;;;;;;6235918;28;20037;-66
2021/11/24 15:43:19;;;;;;;13.85;8.38;;;;;;;;;;6230563;28;20095;-65
2021/11/24 15:46:22;;;;;;;11.30;8.55;;;;;;;;;;6225420;28;20739;-66
2021/11/24 15:49:24;;;;;;;13.63;8.73;;;;;;;;;;6238992;28;20055;-65
2021/11/24 15:52:26;;;;;;;14.60;8.77;;;;;;;;;;6228747;28;20460;-65
2021/11/24 15:55:28;;;;;;;12.30;8.48;;;;;;;;;;6227901;28;20107;-65
2021/11/24 15:58:29;;;;;;;10.60;7.97;;;;;;;;;;6238373;28;20061;-65
2021/11/24 16:01:32;;;;;;;13.35;8.75;;;;;;;;;;6223842;28;20065;-65
2021/11/24 16:04:33;;;;;;;12.80;8.98;;;;;;;;;;6239409;28;20084;-64
2021/11/24 16:07:35;;;;;;;11.57;8.35;;;;;;;;;;6229751;28;20077;-65
2021/11/24 16:10:36;;;;;;;13.30;9.00;;;;;;;;;;6231006;28;20085;-65
2021/11/24 16:13:38;;;;;;;12.45;8.65;;;;;;;;;;6244718;28;20037;-65
2021/11/24 16:16:41;;;;;;;13.55;9.07;;;;;;;;;;6224899;28;20102;-65
2021/11/24 16:19:44;;;;;;;15.77;10.07;;;;;;;;;;6240733;28;20503;-65
2021/11/24 16:22:45;;;;;;;13.85;9.55;;;;;;;;;;6228210;28;20041;-65
2021/11/24 16:25:46;;;;;;;17.38;10.05;;;;;;;;;;6228887;28;20448;-65
2021/11/24 16:28:48;;;;;;;19.25;9.63;;;;;;;;;;6239445;28;20188;-65
2021/11/24 16:31:51;;;;;;;15.55;9.68;;;;;;;;;;6219410;28;20056;-65
2021/11/24 16:34:52;;;;;;;14.10;9.50;;;;;;;;;;6234060;28;20587;-65
2021/11/24 16:37:54;;;;;;;13.02;9.98;;;;;;;;;;6216145;28;20375;-65
2021/11/24 16:40:55;;;;;;;13.88;10.57;;;;;;;;;;6227669;28;20106;-66
2021/11/24 16:43:57;;;;;;;15.63;10.75;;;;;;;;;;6240295;28;20141;-66
2021/11/24 16:46:59;;;;;;;15.88;10.77;;;;;;;;;;6219348;28;20052;-64
2021/11/24 16:50:01;;;;;;;18.55;10.07;;;;;;;;;;6237713;28;20742;-66
2021/11/24 16:53:03;;;;;;;16.95;11.65;;;;;;;;;;6231824;28;20110;-65
2021/11/24 16:56:05;;;;;;;21.10;11.23;;;;;;;;;;6220456;28;20084;-65
2021/11/24 16:59:07;;;;;;;19.95;12.52;;;;;;;;;;6231258;28;20242;-65
2021/11/24 17:02:10;;;;;;;19.23;12.93;;;;;;;;;;6221893;28;20081;-65
2021/11/24 17:05:12;;;;;;;18.52;12.27;;;;;;;;;;6221790;28;20128;-65
2021/11/24 17:08:13;;;;;;;17.48;12.02;;;;;;;;;;6229198;28;20056;-65
2021/11/24 17:11:15;;;;;;;18.05;11.85;;;;;;;;;;6229598;28;20041;-65
2021/11/24 17:14:16;;;;;;;22.90;14.15;;;;;;;;;;6235534;28;20136;-65
2021/11/24 17:17:19;;;;;;;19.35;13.20;;;;;;;;;;6226928;28;20086;-65
2021/11/24 17:20:25;;;;;;;19.10;12.85;;;;;;;;;;6231779;28;20397;-66
2021/11/24 17:23:27;;;;;;;22.77;13.55;;;;;;;;;;6232281;28;20402;-66
2021/11/24 17:26:28;;;;;;;24.80;14.10;;;;;;;;;;6229802;28;20484;-65
2021/11/24 17:29:30;;;;;;;20.77;13.95;;;;;;;;;;6243071;28;20057;-65
2021/11/24 17:32:35;;;;;;;26.63;15.07;;;;;;;;;;6220824;28;20133;-65
2021/11/24 17:35:36;;;;;;;24.45;14.70;;;;;;;;;;6226938;28;20060;-65
2021/11/24 17:38:37;;;;;;;21.77;14.50;;;;;;;;;;6240650;28;20057;-65
2021/11/24 17:41:39;;;;;;;22.83;15.02;;;;;;;;;;6221654;28;20078;-64
2021/11/24 17:44:40;;;;;;;21.70;15.00;;;;;;;;;;6238415;28;20050;-64
2021/11/24 17:47:43;;;;;;;23.92;14.65;;;;;;;;;;6221177;28;20499;-64
2021/11/24 17:50:45;;;;;;;20.55;14.80;;;;;;;;;;6224621;28;20049;-64
2021/11/24 17:53:46;;;;;;;20.60;14.43;;;;;;;;;;6239010;28;20041;-64
2021/11/24 17:56:48;;;;;;;23.38;15.73;;;;;;;;;;6221521;28;20714;-65
2021/11/24 17:59:49;;;;;;;19.95;14.50;;;;;;;;;;6232804;28;20488;-64